Fortune Wing — VRHW2 — position and weather

sailwx.info

Track history (hours):
 
Tides and Currents Weather Stations Pressure Air Temp Water Temp Dewpoint Dewpoint Depression Visibility Wind Speed Wind Dir Waves Ship Positions

Fortune Wing

Last reported at 2014-Nov-27 13:24 UTC. Time now 2014-Nov-28 04:08 UTC.
Position N 30°03' W 090°32'.

Length 190 m; draft 10.1 m.

Type: Cargo ship. MMSI: 477389500.

Date/timePositionNaut miles runAvg speedWind from/ knotsBaromVisibWave heightAir tempDewpointWater temp
2014-Nov-27 13:24N 30°03' W 090°32'0 0.0
2014-Nov-27 12:30N 30°03' W 090°32'0 0.0
2014-Nov-27 11:21N 30°03' W 090°32'0 0.0
2014-Nov-27 09:15N 30°03' W 090°32'0 0.0
2014-Nov-27 05:30N 30°03' W 090°32'22 2.4
2014-Nov-26 20:20N 29°55' W 090°08'43 7.5
2014-Nov-26 14:32N 29°23' W 089°35'  
2014-Nov-23 18:12N 25°38' W 079°26'812.7
2014-Nov-23 17:34N 25°46' W 079°25'1313.0
2014-Nov-23 16:34N 25°58' W 079°22'1313.3
2014-Nov-23 15:33N 26°12' W 079°20'1111.4
2014-Nov-23 14:33N 26°14' W 079°07'1613.7
2014-Nov-23 13:25N 26°14' W 078°50'1413.3
2014-Nov-23 12:23N 26°12' W 078°35'1113.0
2014-Nov-23 11:30N 26°08' W 078°23'  
Track history (hours):
 
Tides and Currents Weather Stations Pressure Air Temp Water Temp Dewpoint Dewpoint Depression Visibility Wind Speed Wind Dir Waves Ship Positions

Fortune Wing

Last reported at 2014-Nov-27 13:24 UTC. Time now 2014-Nov-28 04:08 UTC.
Position N 30°03' W 090°32'.

Length 190 m; draft 10.1 m.

Type: Cargo ship. MMSI: 477389500.

Date/timePositionNaut miles runAvg speedWind from/ knotsBaromVisibWave heightAir tempDewpointWater temp
2014-Nov-27 13:24N 30°03' W 090°32'0 0.0
2014-Nov-27 12:30N 30°03' W 090°32'0 0.0
2014-Nov-27 11:21N 30°03' W 090°32'0 0.0
2014-Nov-27 09:15N 30°03' W 090°32'0 0.0
2014-Nov-27 05:30N 30°03' W 090°32'22 2.4
2014-Nov-26 20:20N 29°55' W 090°08'43 7.5
2014-Nov-26 14:32N 29°23' W 089°35'  
2014-Nov-23 18:12N 25°38' W 079°26'812.7
2014-Nov-23 17:34N 25°46' W 079°25'1313.0
2014-Nov-23 16:34N 25°58' W 079°22'1313.3
2014-Nov-23 15:33N 26°12' W 079°20'1111.4
2014-Nov-23 14:33N 26°14' W 079°07'1613.7
2014-Nov-23 13:25N 26°14' W 078°50'1413.3
2014-Nov-23 12:23N 26°12' W 078°35'1113.0
2014-Nov-23 11:30N 26°08' W 078°23'  

Dump ship's entire track history